createdAt,value
2018-01-25T00:01:56.847Z,73.95
2018-01-25T00:04:25.191Z,74.33
2018-01-25T00:06:53.501Z,73.81
2018-01-25T00:09:21.848Z,73.76
2018-01-25T00:11:50.161Z,73.65
2018-01-25T00:14:18.514Z,73.79
2018-01-25T00:16:46.833Z,73.83
2018-01-25T00:19:15.181Z,74.09
2018-01-25T00:21:43.493Z,74.48
2018-01-25T00:24:11.837Z,74.60
2018-01-25T00:26:40.158Z,74.33
2018-01-25T00:29:08.505Z,74.29
2018-01-25T00:31:36.816Z,74.71
2018-01-25T00:34:05.174Z,74.69
2018-01-25T00:36:33.502Z,74.84
2018-01-25T00:39:01.842Z,74.70
2018-01-25T00:41:30.170Z,74.77
2018-01-25T00:43:58.518Z,74.82
2018-01-25T00:46:26.848Z,74.73
2018-01-25T00:48:55.185Z,75.13
2018-01-25T00:51:23.497Z,74.92
2018-01-25T00:53:51.845Z,74.97
2018-01-25T00:56:20.165Z,75.36
2018-01-25T00:58:48.505Z,75.45
2018-01-25T01:01:16.821Z,75.34
2018-01-25T01:03:45.159Z,75.20
2018-01-25T01:06:13.469Z,75.34
2018-01-25T01:08:41.826Z,75.46
2018-01-25T01:11:10.137Z,76.04
2018-01-25T01:13:38.478Z,77.24
2018-01-25T01:16:06.810Z,77.01
2018-01-25T01:18:35.129Z,77.36
2018-01-25T01:21:03.477Z,77.41
2018-01-25T01:23:31.793Z,77.50
2018-01-25T01:26:00.149Z,77.68
2018-01-25T01:28:28.477Z,78.30
2018-01-25T01:30:56.821Z,78.05
2018-01-25T01:33:25.150Z,79.56
2018-01-25T01:35:53.497Z,83.33
2018-01-25T01:38:21.821Z,86.02
2018-01-25T01:40:50.161Z,88.34
2018-01-25T01:43:18.488Z,89.12
2018-01-25T01:45:46.836Z,90.00
2018-01-25T01:48:15.167Z,91.16
2018-01-25T01:50:43.514Z,91.93
2018-01-25T01:53:11.850Z,92.22
2018-01-25T01:55:40.186Z,92.32
2018-01-25T01:58:08.510Z,92.55
2018-01-25T02:00:36.844Z,93.33
2018-01-25T02:03:05.173Z,93.74
2018-01-25T02:05:33.782Z,94.04
2018-01-25T02:08:02.073Z,94.32
2018-01-25T02:10:30.414Z,94.34
2018-01-25T02:12:58.729Z,94.58
2018-01-25T02:15:27.066Z,94.76
2018-01-25T02:17:55.381Z,94.90
2018-01-25T02:20:23.717Z,94.77
2018-01-25T02:22:52.034Z,95.13
2018-01-25T02:25:20.368Z,95.08
2018-01-25T02:27:48.689Z,95.31
2018-01-25T02:30:17.021Z,94.87
2018-01-25T02:32:45.337Z,94.76
2018-01-25T02:35:13.674Z,94.71
2018-01-25T02:37:41.994Z,94.63
2018-01-25T02:40:10.333Z,94.76
2018-01-25T02:42:39.489Z,94.64
2018-01-25T02:45:07.829Z,94.90
2018-01-25T02:47:36.145Z,94.71
2018-01-25T02:50:04.474Z,94.61
2018-01-25T02:52:32.795Z,94.30
2018-01-25T02:55:01.125Z,94.45
2018-01-25T02:57:29.445Z,94.36
2018-01-25T02:59:57.782Z,94.76
2018-01-25T03:02:26.089Z,94.07
2018-01-25T03:04:54.421Z,93.65
2018-01-25T03:07:22.733Z,93.97
2018-01-25T03:09:51.069Z,93.84
2018-01-25T03:12:19.385Z,93.79
2018-01-25T03:14:47.717Z,93.86
2018-01-25T03:17:16.041Z,93.92
2018-01-25T03:19:44.353Z,94.19
2018-01-25T03:22:12.693Z,94.43
2018-01-25T03:24:41.005Z,94.24
2018-01-25T03:27:09.338Z,94.22
2018-01-25T03:29:37.661Z,94.52
2018-01-25T03:32:06.001Z,94.08
2018-01-25T03:34:34.313Z,94.09
2018-01-25T03:37:02.654Z,94.11
2018-01-25T03:39:30.970Z,93.97
2018-01-25T03:41:59.301Z,93.79
2018-01-25T03:44:27.621Z,93.91
2018-01-25T03:46:55.953Z,93.66
2018-01-25T03:49:24.270Z,93.42
2018-01-25T03:51:52.605Z,92.80
2018-01-25T03:54:20.926Z,93.26
2018-01-25T03:56:49.260Z,93.38
2018-01-25T03:59:17.574Z,93.42
2018-01-25T04:01:45.912Z,93.78
2018-01-25T04:04:14.225Z,93.92
2018-01-25T04:06:42.568Z,94.07
2018-01-25T04:09:10.881Z,94.17
2018-01-25T04:11:39.221Z,94.71
2018-01-25T04:14:07.533Z,94.53
2018-01-25T04:16:35.876Z,94.04
2018-01-25T04:19:04.397Z,93.46
2018-01-25T04:21:32.733Z,93.28
2018-01-25T04:24:01.054Z,93.40
2018-01-25T04:26:29.390Z,93.20
2018-01-25T04:28:57.705Z,93.12
2018-01-25T04:31:26.041Z,92.72
2018-01-25T04:33:54.353Z,92.69
2018-01-25T04:36:22.690Z,92.65
2018-01-25T04:38:51.001Z,92.26
2018-01-25T04:41:19.342Z,91.73
2018-01-25T04:43:47.657Z,91.08
2018-01-25T04:46:16.001Z,90.67
2018-01-25T04:48:44.321Z,89.85
2018-01-25T04:51:12.657Z,90.19
2018-01-25T04:53:40.974Z,89.79
2018-01-25T04:56:09.312Z,89.94
2018-01-25T04:58:37.620Z,90.10
2018-01-25T05:01:05.965Z,90.49
2018-01-25T05:03:34.277Z,90.83
2018-01-25T05:06:02.609Z,91.11
2018-01-25T05:08:30.929Z,90.97
2018-01-25T05:10:59.261Z,91.06
2018-01-25T05:13:27.577Z,90.84
2018-01-25T05:15:55.925Z,91.17
2018-01-25T05:18:24.241Z,90.83
2018-01-25T05:20:52.573Z,90.98
2018-01-25T05:23:20.909Z,91.44
2018-01-25T05:25:49.219Z,91.52
2018-01-25T05:28:17.550Z,91.54
2018-01-25T05:30:45.870Z,91.44
2018-01-25T05:33:14.213Z,91.22
2018-01-25T05:35:42.525Z,91.35
2018-01-25T05:38:10.862Z,91.29
2018-01-25T05:40:39.182Z,91.06
2018-01-25T05:43:07.555Z,90.68
2018-01-25T05:45:36.925Z,90.34
2018-01-25T05:48:06.132Z,90.89
2018-01-25T05:50:34.451Z,91.23
2018-01-25T05:53:06.896Z,91.50
2018-01-25T05:55:36.352Z,91.62
2018-01-25T05:58:04.701Z,91.96
2018-01-25T06:00:33.018Z,91.81
2018-01-25T06:03:01.357Z,91.39
2018-01-25T06:05:29.680Z,90.79
2018-01-25T06:07:58.018Z,90.87
2018-01-25T06:10:26.395Z,90.87
2018-01-25T06:12:54.757Z,90.48
2018-01-25T06:15:23.115Z,90.34
2018-01-25T06:17:51.453Z,89.94
2018-01-25T06:20:19.773Z,89.49
2018-01-25T06:22:48.113Z,89.41
2018-01-25T06:25:16.453Z,89.35
2018-01-25T06:27:44.785Z,88.92
2018-01-25T06:30:13.201Z,89.18
2018-01-25T06:32:41.546Z,89.12
2018-01-25T06:35:09.868Z,88.85
2018-01-25T06:37:38.206Z,88.07
2018-01-25T06:40:06.521Z,87.90
2018-01-25T06:42:34.849Z,88.28
2018-01-25T06:45:03.186Z,88.24
2018-01-25T06:47:31.818Z,88.65
2018-01-25T06:50:00.133Z,88.86
2018-01-25T06:52:28.478Z,89.03
2018-01-25T06:54:56.793Z,89.40
2018-01-25T06:57:25.131Z,90.03
2018-01-25T06:59:53.593Z,90.35
2018-01-25T07:02:22.095Z,90.84
2018-01-25T07:04:50.421Z,91.28
2018-01-25T07:07:18.765Z,91.41
2018-01-25T07:09:47.082Z,91.87
2018-01-25T07:12:15.422Z,91.82
2018-01-25T07:14:43.746Z,91.67
2018-01-25T07:17:12.458Z,91.68
2018-01-25T07:19:40.778Z,91.87
2018-01-25T07:22:09.121Z,91.58
2018-01-25T07:24:37.462Z,91.04
2018-01-25T07:27:05.811Z,91.55
2018-01-25T07:29:34.134Z,91.29
2018-01-25T07:32:02.458Z,91.21
2018-01-25T07:34:30.803Z,91.50
2018-01-25T07:36:59.350Z,90.95
2018-01-25T07:39:27.704Z,90.50
2018-01-25T07:41:56.018Z,90.86
2018-01-25T07:44:24.366Z,90.80
2018-01-25T07:46:52.690Z,91.05
2018-01-25T07:49:21.033Z,90.40
2018-01-25T07:51:49.357Z,90.65
2018-01-25T07:54:17.702Z,90.59
2018-01-25T07:56:46.034Z,90.38
2018-01-25T07:59:14.374Z,91.01
2018-01-25T08:01:42.697Z,90.59
2018-01-25T08:04:11.038Z,90.47
2018-01-25T08:06:39.358Z,90.27
2018-01-25T08:09:07.701Z,90.53
2018-01-25T08:11:36.025Z,90.52
2018-01-25T08:14:04.370Z,90.39
2018-01-25T08:16:38.370Z,90.01
2018-01-25T08:19:07.229Z,89.80
2018-01-25T08:21:35.590Z,89.49
2018-01-25T08:24:03.945Z,89.02
2018-01-25T08:26:33.173Z,89.53
2018-01-25T08:29:01.518Z,89.29
2018-01-25T08:31:29.841Z,89.40
2018-01-25T08:33:58.182Z,89.07
2018-01-25T08:36:26.510Z,89.25
2018-01-25T08:38:54.853Z,89.09
2018-01-25T08:41:23.178Z,89.20
2018-01-25T08:43:51.520Z,89.35
2018-01-25T08:46:19.841Z,88.81
2018-01-25T08:48:48.189Z,88.52
2018-01-25T08:51:16.509Z,88.70
2018-01-25T08:53:44.849Z,88.40
2018-01-25T08:56:13.170Z,88.32
2018-01-25T08:58:41.761Z,88.32
2018-01-25T09:01:10.086Z,88.30
2018-01-25T09:03:38.433Z,88.33
2018-01-25T09:06:06.757Z,88.49
2018-01-25T09:08:35.101Z,87.74
2018-01-25T09:11:03.422Z,87.99
2018-01-25T09:13:31.772Z,87.73
2018-01-25T09:16:00.094Z,87.76
2018-01-25T09:18:28.571Z,87.45
2018-01-25T09:20:56.881Z,86.64
2018-01-25T09:23:25.222Z,86.35
2018-01-25T09:25:53.545Z,86.16
2018-01-25T09:28:21.889Z,86.61
2018-01-25T09:30:50.209Z,86.54
2018-01-25T09:33:18.560Z,86.65
2018-01-25T09:35:46.877Z,86.83
2018-01-25T09:38:15.189Z,86.50
2018-01-25T09:40:43.529Z,85.84
2018-01-25T09:43:11.849Z,86.19
2018-01-25T09:45:40.189Z,86.14
2018-01-25T09:48:08.516Z,85.62
2018-01-25T09:50:36.857Z,85.79
2018-01-25T09:53:05.165Z,85.10
2018-01-25T09:55:33.724Z,85.16
2018-01-25T09:58:02.025Z,85.17
2018-01-25T10:00:30.373Z,85.04
2018-01-25T10:02:58.857Z,84.82
2018-01-25T10:05:27.194Z,84.59
2018-01-25T10:07:55.517Z,84.19
2018-01-25T10:10:23.861Z,84.40
2018-01-25T10:12:52.182Z,84.49
2018-01-25T10:15:20.525Z,85.70
2018-01-25T10:17:48.846Z,84.54
2018-01-25T10:20:17.189Z,84.46
2018-01-25T10:22:46.277Z,84.74
2018-01-25T10:25:15.293Z,84.12
2018-01-25T10:27:43.627Z,83.30
2018-01-25T10:30:12.281Z,83.05
2018-01-25T10:32:40.607Z,83.31
2018-01-25T10:35:08.956Z,83.10
2018-01-25T10:37:37.265Z,83.68
2018-01-25T10:40:05.605Z,83.55
2018-01-25T10:42:33.925Z,83.60
2018-01-25T10:45:02.265Z,83.27
2018-01-25T10:47:30.638Z,84.09
2018-01-25T10:49:58.925Z,83.41
2018-01-25T10:52:27.309Z,83.98
2018-01-25T10:54:55.629Z,83.90
2018-01-25T10:57:23.976Z,84.24
2018-01-25T10:59:52.294Z,83.85
2018-01-25T11:02:20.614Z,83.25
2018-01-25T11:04:50.005Z,83.44
2018-01-25T11:07:18.362Z,83.51
2018-01-25T11:09:46.702Z,83.98
2018-01-25T11:12:15.022Z,83.65
2018-01-25T11:14:43.361Z,83.46
2018-01-25T11:17:11.686Z,83.40
2018-01-25T11:19:40.022Z,83.87
2018-01-25T11:22:08.333Z,83.85
2018-01-25T11:24:36.678Z,84.22
2018-01-25T11:27:05.053Z,84.49
2018-01-25T11:29:33.390Z,84.11
2018-01-25T11:32:01.755Z,84.47
2018-01-25T11:34:30.098Z,85.03
2018-01-25T11:36:58.413Z,84.97
2018-01-25T11:39:26.735Z,85.56
2018-01-25T11:41:55.121Z,84.01
2018-01-25T11:44:23.460Z,84.03
2018-01-25T11:46:51.805Z,83.87
2018-01-25T11:49:20.127Z,83.60
2018-01-25T11:51:48.486Z,83.62
2018-01-25T11:54:16.814Z,83.96
2018-01-25T11:56:45.163Z,84.36
2018-01-25T11:59:13.483Z,84.52
2018-01-25T12:01:41.817Z,83.56
2018-01-25T12:04:10.141Z,84.03
2018-01-25T12:06:38.482Z,84.40
2018-01-25T12:09:06.802Z,84.49
2018-01-25T12:11:35.141Z,84.99
2018-01-25T12:14:03.465Z,85.19
2018-01-25T12:16:31.814Z,85.55
2018-01-25T12:19:00.143Z,85.17
2018-01-25T12:21:28.485Z,85.46
2018-01-25T12:23:56.810Z,85.45
2018-01-25T12:26:26.592Z,85.88
2018-01-25T12:28:54.921Z,85.21
2018-01-25T12:31:23.294Z,86.08
2018-01-25T12:33:52.489Z,85.97
2018-01-25T12:36:20.937Z,86.00
2018-01-25T12:38:49.248Z,85.86
2018-01-25T12:41:17.594Z,86.00
2018-01-25T12:43:45.910Z,85.79
2018-01-25T12:46:14.249Z,85.72
2018-01-25T12:48:42.569Z,86.16
2018-01-25T12:51:10.918Z,85.89
2018-01-25T12:53:40.238Z,86.06
2018-01-25T12:56:08.557Z,86.09
2018-01-25T12:58:36.904Z,85.86
2018-01-25T13:01:05.221Z,86.09
2018-01-25T13:03:33.566Z,86.00
2018-01-25T13:06:02.865Z,85.28
2018-01-25T13:08:31.213Z,85.38
2018-01-25T13:10:59.542Z,85.10
2018-01-25T13:13:28.202Z,85.27
2018-01-25T13:15:56.641Z,86.16
2018-01-25T13:18:24.985Z,83.47
2018-01-25T13:20:53.318Z,83.75
2018-01-25T13:23:21.665Z,83.59
2018-01-25T13:25:49.994Z,83.66
2018-01-25T13:28:18.349Z,84.18
2018-01-25T13:30:46.680Z,84.27
2018-01-25T13:33:20.720Z,84.48
2018-01-25T13:35:49.054Z,84.40
2018-01-25T13:38:17.410Z,85.01
2018-01-25T13:40:45.744Z,85.25
2018-01-25T13:43:14.090Z,84.96
2018-01-25T13:45:42.409Z,85.42
2018-01-25T13:48:10.757Z,85.27
2018-01-25T13:50:39.096Z,85.09
2018-01-25T13:53:07.438Z,85.61
2018-01-25T13:55:35.762Z,85.54
2018-01-25T13:58:04.114Z,85.46
2018-01-25T14:00:32.442Z,85.28
2018-01-25T14:03:00.805Z,85.31
2018-01-25T14:05:29.137Z,84.52
2018-01-25T14:07:57.486Z,84.12
2018-01-25T14:10:25.818Z,84.41
2018-01-25T14:12:54.206Z,84.18
2018-01-25T14:15:22.545Z,84.40
2018-01-25T14:17:50.930Z,84.24
2018-01-25T14:20:19.261Z,84.17
2018-01-25T14:22:47.605Z,84.44
2018-01-25T14:25:15.944Z,83.84
2018-01-25T14:27:44.301Z,83.23
2018-01-25T14:30:12.633Z,82.97
2018-01-25T14:32:40.985Z,82.60
2018-01-25T14:35:09.310Z,82.57
2018-01-25T14:37:37.657Z,82.19
2018-01-25T14:40:05.985Z,82.33
2018-01-25T14:42:34.338Z,83.06
2018-01-25T14:45:02.667Z,82.23
2018-01-25T14:47:31.014Z,82.58
2018-01-25T14:49:59.345Z,82.62
2018-01-25T14:52:27.701Z,83.17
2018-01-25T14:54:56.358Z,82.97
2018-01-25T14:57:24.701Z,82.90
2018-01-25T14:59:53.061Z,83.23
2018-01-25T15:02:21.361Z,83.27
2018-01-25T15:04:49.823Z,83.33
2018-01-25T15:07:18.397Z,83.28
2018-01-25T15:09:46.747Z,83.14
2018-01-25T15:12:15.069Z,83.28
2018-01-25T15:14:43.420Z,83.51
2018-01-25T15:17:11.750Z,83.42
2018-01-25T15:19:40.113Z,83.67
2018-01-25T15:22:08.449Z,83.81
2018-01-25T15:24:36.802Z,83.60
2018-01-25T15:27:05.202Z,83.26
2018-01-25T15:29:33.593Z,82.71
2018-01-25T15:32:03.326Z,82.66
2018-01-25T15:34:31.788Z,82.39
2018-01-25T15:37:00.249Z,81.92
2018-01-25T15:39:28.592Z,82.06
2018-01-25T15:41:56.987Z,82.30
2018-01-25T15:44:25.453Z,82.21
2018-01-25T15:46:53.781Z,82.70
2018-01-25T15:49:22.165Z,82.33
2018-01-25T15:51:50.490Z,82.65
2018-01-25T15:54:18.837Z,82.72
2018-01-25T15:56:47.157Z,83.39
2018-01-25T15:59:15.503Z,83.44
2018-01-25T16:01:43.825Z,83.76
2018-01-25T16:04:12.174Z,83.93
2018-01-25T16:06:40.502Z,84.10
2018-01-25T16:09:08.846Z,85.26
2018-01-25T16:11:37.170Z,85.38
2018-01-25T16:14:05.508Z,85.33
2018-01-25T16:16:33.837Z,85.25
2018-01-25T16:19:02.186Z,85.64
2018-01-25T16:21:30.510Z,85.78
2018-01-25T16:23:58.849Z,85.80
2018-01-25T16:26:27.174Z,85.51
2018-01-25T16:28:55.650Z,85.96
2018-01-25T16:31:23.973Z,85.86
2018-01-25T16:33:52.365Z,86.05
2018-01-25T16:36:20.638Z,86.54
2018-01-25T16:38:48.992Z,86.66
2018-01-25T16:41:17.309Z,86.49
2018-01-25T16:43:45.653Z,86.34
2018-01-25T16:46:13.982Z,86.49
2018-01-25T16:48:42.330Z,86.46
2018-01-25T16:51:10.650Z,86.26
2018-01-25T16:53:38.989Z,86.45
2018-01-25T16:56:07.309Z,86.11
2018-01-25T16:58:35.649Z,85.72
2018-01-25T17:01:03.975Z,85.63
2018-01-25T17:03:32.298Z,85.37
2018-01-25T17:06:00.643Z,85.39
2018-01-25T17:08:28.965Z,85.45
2018-01-25T17:10:57.310Z,85.34
2018-01-25T17:13:25.633Z,85.12
2018-01-25T17:15:53.974Z,85.01
2018-01-25T17:18:22.301Z,84.58
2018-01-25T17:20:50.649Z,84.76
2018-01-25T17:23:18.968Z,84.57
2018-01-25T17:25:47.305Z,84.44
2018-01-25T17:28:16.350Z,84.22
2018-01-25T17:30:44.690Z,84.40
2018-01-25T17:33:13.061Z,85.74
2018-01-25T17:35:41.440Z,83.85
2018-01-25T17:38:09.757Z,83.20
2018-01-25T17:40:38.133Z,83.08
2018-01-25T17:43:06.713Z,82.84
2018-01-25T17:45:35.666Z,82.80
2018-01-25T17:48:03.990Z,82.86
2018-01-25T17:50:32.455Z,83.07
2018-01-25T17:53:00.772Z,82.62
2018-01-25T17:55:29.100Z,82.55
2018-01-25T17:57:57.427Z,82.67
2018-01-25T18:00:25.769Z,82.88
2018-01-25T18:02:54.095Z,83.28
2018-01-25T18:05:22.448Z,83.15
2018-01-25T18:07:51.016Z,82.76
2018-01-25T18:10:19.357Z,82.93
2018-01-25T18:12:47.705Z,83.33
2018-01-25T18:15:16.451Z,82.79
2018-01-25T18:17:44.786Z,82.52
2018-01-25T18:20:13.129Z,82.67
2018-01-25T18:22:41.565Z,82.27
2018-01-25T18:25:09.934Z,82.53
2018-01-25T18:27:38.245Z,82.10
2018-01-25T18:30:06.577Z,81.95
2018-01-25T18:32:34.905Z,81.54
2018-01-25T18:35:03.320Z,81.56
2018-01-25T18:37:31.643Z,81.40
2018-01-25T18:39:59.981Z,80.86
2018-01-25T18:42:28.411Z,80.27
2018-01-25T18:44:56.753Z,80.17
2018-01-25T18:47:26.217Z,80.22
2018-01-25T18:49:54.701Z,80.45
2018-01-25T18:52:23.022Z,80.37
2018-01-25T18:54:51.445Z,80.68
2018-01-25T18:57:20.183Z,80.76
2018-01-25T18:59:48.546Z,80.42
2018-01-25T19:02:16.894Z,80.35
2018-01-25T19:04:45.318Z,80.40
2018-01-25T19:07:13.638Z,80.50
2018-01-25T19:09:42.022Z,80.71
2018-01-25T19:12:10.602Z,81.14
2018-01-25T19:14:38.909Z,81.11
2018-01-25T19:17:07.358Z,81.00
2018-01-25T19:19:35.761Z,81.28
2018-01-25T19:22:04.104Z,80.98
2018-01-25T19:24:32.585Z,81.11
2018-01-25T19:27:00.909Z,80.65
2018-01-25T19:29:29.225Z,85.76
2018-01-25T19:31:57.570Z,80.82
2018-01-25T19:34:25.885Z,80.52
2018-01-25T19:36:54.221Z,80.67
2018-01-25T19:39:22.541Z,80.44
2018-01-25T19:41:50.885Z,81.24
2018-01-25T19:44:19.210Z,81.17
2018-01-25T19:46:47.545Z,81.32
2018-01-25T19:49:16.093Z,82.03
2018-01-25T19:51:44.429Z,81.91
2018-01-25T19:54:12.745Z,82.54
2018-01-25T19:56:41.108Z,82.39
2018-01-25T19:59:09.429Z,82.70
2018-01-25T20:01:38.109Z,83.09
2018-01-25T20:04:07.394Z,83.13
2018-01-25T20:06:35.975Z,83.22
2018-01-25T20:09:04.294Z,83.34
2018-01-25T20:11:32.706Z,83.35
2018-01-25T20:14:01.005Z,83.24
2018-01-25T20:16:30.333Z,83.44
2018-01-25T20:18:58.661Z,83.43
2018-01-25T20:21:27.009Z,84.26
2018-01-25T20:23:55.399Z,84.73
2018-01-25T20:26:23.957Z,85.11
2018-01-25T20:28:52.433Z,84.74
2018-01-25T20:31:20.753Z,85.10
2018-01-25T20:33:49.072Z,85.69
2018-01-25T20:36:17.404Z,85.44
2018-01-25T20:38:45.725Z,85.23
2018-01-25T20:41:14.073Z,85.83
2018-01-25T20:43:42.389Z,85.63
2018-01-25T20:46:10.721Z,85.26
2018-01-25T20:48:39.037Z,85.10
2018-01-25T20:51:07.383Z,84.88
2018-01-25T20:53:35.710Z,84.78
2018-01-25T20:56:04.990Z,84.99
2018-01-25T20:58:33.314Z,85.20
2018-01-25T21:01:01.645Z,85.42
2018-01-25T21:03:29.978Z,85.43
2018-01-25T21:05:59.201Z,85.83
2018-01-25T21:08:27.610Z,86.00
2018-01-25T21:10:55.985Z,86.24
2018-01-25T21:13:24.298Z,86.58
2018-01-25T21:15:53.473Z,86.72
2018-01-25T21:18:21.809Z,86.78
2018-01-25T21:20:50.125Z,86.73
2018-01-25T21:23:18.482Z,86.84
2018-01-25T21:25:48.546Z,87.23
2018-01-25T21:28:16.877Z,87.30
2018-01-25T21:30:45.249Z,87.06
2018-01-25T21:33:13.577Z,86.86
2018-01-25T21:35:42.894Z,87.15
2018-01-25T21:38:11.245Z,87.15
2018-01-25T21:40:39.600Z,87.03
2018-01-25T21:43:07.933Z,86.78
2018-01-25T21:45:37.213Z,87.19
2018-01-25T21:48:05.554Z,87.21
2018-01-25T21:50:44.707Z,87.19
2018-01-25T21:53:18.805Z,86.87
2018-01-25T21:55:47.124Z,86.92
2018-01-25T21:58:15.466Z,87.05
2018-01-25T22:00:43.829Z,87.08
2018-01-25T22:03:12.221Z,86.92
2018-01-25T22:05:40.541Z,86.77
2018-01-25T22:08:08.877Z,86.91
2018-01-25T22:10:37.223Z,86.88
2018-01-25T22:13:05.727Z,86.93
2018-01-25T22:15:34.037Z,86.97
2018-01-25T22:18:02.369Z,86.93
2018-01-25T22:20:30.687Z,87.47
2018-01-25T22:22:59.026Z,87.69
2018-01-25T22:25:27.351Z,87.61
2018-01-25T22:27:55.686Z,87.69
2018-01-25T22:30:23.996Z,87.83
2018-01-25T22:32:52.332Z,87.86
2018-01-25T22:35:20.649Z,87.97
2018-01-25T22:37:48.989Z,88.26
2018-01-25T22:40:17.300Z,88.04
2018-01-25T22:42:45.641Z,88.51
2018-01-25T22:45:13.964Z,89.00
2018-01-25T22:47:42.304Z,89.32
2018-01-25T22:50:10.625Z,89.67
2018-01-25T22:52:38.966Z,90.23
2018-01-25T22:55:07.295Z,89.99
2018-01-25T22:57:35.622Z,89.89
2018-01-25T23:00:03.946Z,89.69
2018-01-25T23:02:32.276Z,89.87
2018-01-25T23:05:00.592Z,89.90
2018-01-25T23:07:28.928Z,89.90
2018-01-25T23:09:57.245Z,90.08
2018-01-25T23:12:25.572Z,90.05
2018-01-25T23:14:53.886Z,90.04
2018-01-25T23:17:22.217Z,89.79
2018-01-25T23:19:50.533Z,90.34
2018-01-25T23:22:18.870Z,90.36
2018-01-25T23:24:47.189Z,90.60
2018-01-25T23:27:15.530Z,90.53
2018-01-25T23:29:43.841Z,90.23
2018-01-25T23:32:12.160Z,89.82
2018-01-25T23:34:40.504Z,89.62
2018-01-25T23:37:08.809Z,89.65
2018-01-25T23:39:37.140Z,90.11
2018-01-25T23:42:05.452Z,89.84
2018-01-25T23:44:33.793Z,89.94
2018-01-25T23:47:02.152Z,90.00
2018-01-25T23:49:30.445Z,89.83
2018-01-25T23:51:58.765Z,89.78
2018-01-25T23:54:27.105Z,89.75
2018-01-25T23:56:55.426Z,89.67
2018-01-25T23:59:23.756Z,89.48
